sensor_id;sensor_type;location;lat;lon;timestamp;P1;durP1;ratioP1;P2;durP2;ratioP2
15633;SDS011;14654;48.898;8.308;2023-04-24T00:00:00;1.77;;;1.03;;
15633;SDS011;14654;48.898;8.308;2023-04-24T00:02:26;1.50;;;0.70;;
15633;SDS011;14654;48.898;8.308;2023-04-24T00:04:51;1.10;;;0.87;;
15633;SDS011;14654;48.898;8.308;2023-04-24T00:07:17;2.30;;;1.00;;
15633;SDS011;14654;48.898;8.308;2023-04-24T00:09:42;0.83;;;0.70;;
15633;SDS011;14654;48.898;8.308;2023-04-24T00:12:08;1.63;;;0.87;;
15633;SDS011;14654;48.898;8.308;2023-04-24T00:14:34;1.20;;;0.80;;
15633;SDS011;14654;48.898;8.308;2023-04-24T00:17:00;0.87;;;0.77;;
15633;SDS011;14654;48.898;8.308;2023-04-24T00:19:27;1.10;;;0.77;;
15633;SDS011;14654;48.898;8.308;2023-04-24T00:21:53;1.13;;;0.80;;
15633;SDS011;14654;48.898;8.308;2023-04-24T00:24:20;3.80;;;0.90;;
15633;SDS011;14654;48.898;8.308;2023-04-24T00:26:45;2.03;;;0.70;;
15633;SDS011;14654;48.898;8.308;2023-04-24T00:29:11;2.30;;;0.80;;
15633;SDS011;14654;48.898;8.308;2023-04-24T00:31:36;1.10;;;0.77;;
15633;SDS011;14654;48.898;8.308;2023-04-24T00:34:02;1.10;;;0.50;;
15633;SDS011;14654;48.898;8.308;2023-04-24T00:36:28;0.60;;;0.60;;
15633;SDS011;14654;48.898;8.308;2023-04-24T00:38:54;0.97;;;0.70;;
15633;SDS011;14654;48.898;8.308;2023-04-24T00:41:20;1.47;;;0.80;;
15633;SDS011;14654;48.898;8.308;2023-04-24T00:43:46;1.10;;;0.90;;
15633;SDS011;14654;48.898;8.308;2023-04-24T00:46:11;2.03;;;0.90;;
15633;SDS011;14654;48.898;8.308;2023-04-24T00:48:38;1.17;;;0.60;;
15633;SDS011;14654;48.898;8.308;2023-04-24T00:51:03;0.80;;;0.70;;
15633;SDS011;14654;48.898;8.308;2023-04-24T00:53:29;1.23;;;0.80;;
15633;SDS011;14654;48.898;8.308;2023-04-24T00:55:54;1.53;;;0.80;;
15633;SDS011;14654;48.898;8.308;2023-04-24T00:58:21;1.63;;;0.87;;
15633;SDS011;14654;48.898;8.308;2023-04-24T01:00:46;1.33;;;0.97;;
15633;SDS011;14654;48.898;8.308;2023-04-24T01:03:13;2.00;;;0.80;;
15633;SDS011;14654;48.898;8.308;2023-04-24T01:05:40;1.33;;;0.80;;
15633;SDS011;14654;48.898;8.308;2023-04-24T01:08:06;0.87;;;0.63;;
15633;SDS011;14654;48.898;8.308;2023-04-24T01:10:32;1.00;;;0.67;;
15633;SDS011;14654;48.898;8.308;2023-04-24T01:12:58;1.90;;;0.80;;
15633;SDS011;14654;48.898;8.308;2023-04-24T01:15:24;1.53;;;0.70;;
15633;SDS011;14654;48.898;8.308;2023-04-24T01:17:50;1.50;;;0.93;;
15633;SDS011;14654;48.898;8.308;2023-04-24T01:20:15;0.70;;;0.70;;
15633;SDS011;14654;48.898;8.308;2023-04-24T01:22:42;1.43;;;0.80;;
15633;SDS011;14654;48.898;8.308;2023-04-24T01:25:07;0.80;;;0.70;;
15633;SDS011;14654;48.898;8.308;2023-04-24T01:27:33;1.33;;;0.90;;
15633;SDS011;14654;48.898;8.308;2023-04-24T01:29:59;1.30;;;0.87;;
15633;SDS011;14654;48.898;8.308;2023-04-24T01:32:24;1.10;;;0.73;;
15633;SDS011;14654;48.898;8.308;2023-04-24T01:34:50;1.87;;;0.90;;
15633;SDS011;14654;48.898;8.308;2023-04-24T01:37:16;1.20;;;0.87;;
15633;SDS011;14654;48.898;8.308;2023-04-24T01:39:42;2.17;;;0.93;;
15633;SDS011;14654;48.898;8.308;2023-04-24T01:42:08;1.20;;;0.97;;
15633;SDS011;14654;48.898;8.308;2023-04-24T01:44:33;1.80;;;0.93;;
15633;SDS011;14654;48.898;8.308;2023-04-24T01:47:00;1.27;;;0.70;;
15633;SDS011;14654;48.898;8.308;2023-04-24T01:49:26;1.20;;;0.80;;
15633;SDS011;14654;48.898;8.308;2023-04-24T01:51:51;1.60;;;0.90;;
15633;SDS011;14654;48.898;8.308;2023-04-24T01:54:17;1.33;;;0.90;;
15633;SDS011;14654;48.898;8.308;2023-04-24T01:56:42;1.37;;;0.90;;
15633;SDS011;14654;48.898;8.308;2023-04-24T01:59:09;1.00;;;0.90;;
15633;SDS011;14654;48.898;8.308;2023-04-24T02:01:36;1.20;;;0.80;;
15633;SDS011;14654;48.898;8.308;2023-04-24T02:04:02;1.50;;;0.70;;
15633;SDS011;14654;48.898;8.308;2023-04-24T02:06:28;1.10;;;1.00;;
15633;SDS011;14654;48.898;8.308;2023-04-24T02:08:56;1.73;;;0.70;;
15633;SDS011;14654;48.898;8.308;2023-04-24T02:11:21;0.80;;;0.80;;
15633;SDS011;14654;48.898;8.308;2023-04-24T02:13:47;1.97;;;0.90;;
15633;SDS011;14654;48.898;8.308;2023-04-24T02:16:12;0.97;;;0.80;;
15633;SDS011;14654;48.898;8.308;2023-04-24T02:18:37;1.17;;;0.73;;
15633;SDS011;14654;48.898;8.308;2023-04-24T02:21:03;1.40;;;0.70;;
15633;SDS011;14654;48.898;8.308;2023-04-24T02:23:28;1.60;;;0.83;;
15633;SDS011;14654;48.898;8.308;2023-04-24T02:25:53;1.90;;;1.00;;
15633;SDS011;14654;48.898;8.308;2023-04-24T02:28:19;2.83;;;0.90;;
15633;SDS011;14654;48.898;8.308;2023-04-24T02:30:44;2.10;;;0.80;;
15633;SDS011;14654;48.898;8.308;2023-04-24T02:33:10;2.10;;;0.90;;
15633;SDS011;14654;48.898;8.308;2023-04-24T02:35:36;1.83;;;1.10;;
15633;SDS011;14654;48.898;8.308;2023-04-24T02:38:01;2.63;;;0.80;;
15633;SDS011;14654;48.898;8.308;2023-04-24T02:40:28;2.50;;;0.93;;
15633;SDS011;14654;48.898;8.308;2023-04-24T02:42:53;1.67;;;0.80;;
15633;SDS011;14654;48.898;8.308;2023-04-24T02:45:19;1.73;;;0.90;;
15633;SDS011;14654;48.898;8.308;2023-04-24T02:47:44;1.93;;;0.90;;
15633;SDS011;14654;48.898;8.308;2023-04-24T02:50:09;1.40;;;0.80;;
15633;SDS011;14654;48.898;8.308;2023-04-24T02:52:35;1.17;;;0.80;;
15633;SDS011;14654;48.898;8.308;2023-04-24T02:55:00;1.23;;;0.70;;
15633;SDS011;14654;48.898;8.308;2023-04-24T02:57:26;0.67;;;0.67;;
15633;SDS011;14654;48.898;8.308;2023-04-24T02:59:51;1.73;;;0.80;;
15633;SDS011;14654;48.898;8.308;2023-04-24T03:02:16;1.10;;;0.70;;
15633;SDS011;14654;48.898;8.308;2023-04-24T03:04:41;1.20;;;0.77;;
15633;SDS011;14654;48.898;8.308;2023-04-24T03:07:07;1.90;;;1.30;;
15633;SDS011;14654;48.898;8.308;2023-04-24T03:09:33;2.40;;;1.20;;
15633;SDS011;14654;48.898;8.308;2023-04-24T03:11:58;2.07;;;1.20;;
15633;SDS011;14654;48.898;8.308;2023-04-24T03:14:23;1.43;;;0.80;;
15633;SDS011;14654;48.898;8.308;2023-04-24T03:16:49;0.60;;;0.60;;
15633;SDS011;14654;48.898;8.308;2023-04-24T03:19:15;1.93;;;0.90;;
15633;SDS011;14654;48.898;8.308;2023-04-24T03:21:40;1.00;;;0.80;;
15633;SDS011;14654;48.898;8.308;2023-04-24T03:24:08;1.23;;;0.80;;
15633;SDS011;14654;48.898;8.308;2023-04-24T03:26:37;1.87;;;0.70;;
15633;SDS011;14654;48.898;8.308;2023-04-24T03:29:02;0.63;;;0.53;;
15633;SDS011;14654;48.898;8.308;2023-04-24T03:31:27;0.80;;;0.53;;
15633;SDS011;14654;48.898;8.308;2023-04-24T03:33:52;0.70;;;0.70;;
15633;SDS011;14654;48.898;8.308;2023-04-24T03:36:18;1.17;;;0.70;;
15633;SDS011;14654;48.898;8.308;2023-04-24T03:38:44;0.73;;;0.60;;
15633;SDS011;14654;48.898;8.308;2023-04-24T03:41:10;1.17;;;0.83;;
15633;SDS011;14654;48.898;8.308;2023-04-24T03:43:35;1.40;;;0.70;;
15633;SDS011;14654;48.898;8.308;2023-04-24T03:46:00;2.00;;;0.80;;
15633;SDS011;14654;48.898;8.308;2023-04-24T03:48:26;1.20;;;1.07;;
15633;SDS011;14654;48.898;8.308;2023-04-24T03:50:51;2.40;;;1.20;;
15633;SDS011;14654;48.898;8.308;2023-04-24T03:53:17;1.20;;;1.00;;
15633;SDS011;14654;48.898;8.308;2023-04-24T03:55:42;1.87;;;1.20;;
15633;SDS011;14654;48.898;8.308;2023-04-24T03:58:07;2.03;;;1.00;;
15633;SDS011;14654;48.898;8.308;2023-04-24T04:00:33;1.30;;;1.00;;
15633;SDS011;14654;48.898;8.308;2023-04-24T04:02:59;1.00;;;0.90;;
15633;SDS011;14654;48.898;8.308;2023-04-24T04:05:25;1.10;;;1.00;;
15633;SDS011;14654;48.898;8.308;2023-04-24T04:07:50;2.07;;;1.03;;
15633;SDS011;14654;48.898;8.308;2023-04-24T04:10:16;1.50;;;1.27;;
15633;SDS011;14654;48.898;8.308;2023-04-24T04:12:42;1.50;;;1.40;;
15633;SDS011;14654;48.898;8.308;2023-04-24T04:15:07;1.17;;;1.07;;
15633;SDS011;14654;48.898;8.308;2023-04-24T04:17:33;1.40;;;1.20;;
15633;SDS011;14654;48.898;8.308;2023-04-24T04:19:58;1.40;;;1.30;;
15633;SDS011;14654;48.898;8.308;2023-04-24T04:22:23;2.20;;;1.57;;
15633;SDS011;14654;48.898;8.308;2023-04-24T04:24:49;1.40;;;1.30;;
15633;SDS011;14654;48.898;8.308;2023-04-24T04:27:16;1.50;;;1.40;;
15633;SDS011;14654;48.898;8.308;2023-04-24T04:29:41;1.40;;;1.30;;
15633;SDS011;14654;48.898;8.308;2023-04-24T04:32:06;2.03;;;1.83;;
15633;SDS011;14654;48.898;8.308;2023-04-24T04:34:32;2.83;;;1.60;;
15633;SDS011;14654;48.898;8.308;2023-04-24T04:36:58;1.30;;;1.20;;
15633;SDS011;14654;48.898;8.308;2023-04-24T04:39:27;1.77;;;1.50;;
15633;SDS011;14654;48.898;8.308;2023-04-24T04:41:53;1.87;;;1.47;;
15633;SDS011;14654;48.898;8.308;2023-04-24T04:44:18;1.83;;;1.60;;
15633;SDS011;14654;48.898;8.308;2023-04-24T04:46:44;1.63;;;1.53;;
15633;SDS011;14654;48.898;8.308;2023-04-24T04:49:09;1.50;;;1.40;;
15633;SDS011;14654;48.898;8.308;2023-04-24T04:51:35;1.50;;;1.40;;
15633;SDS011;14654;48.898;8.308;2023-04-24T04:54:01;2.50;;;1.80;;
15633;SDS011;14654;48.898;8.308;2023-04-24T04:56:26;1.70;;;1.60;;
15633;SDS011;14654;48.898;8.308;2023-04-24T04:58:52;2.07;;;1.97;;
15633;SDS011;14654;48.898;8.308;2023-04-24T05:01:17;2.33;;;1.60;;
15633;SDS011;14654;48.898;8.308;2023-04-24T05:03:42;2.20;;;1.93;;
15633;SDS011;14654;48.898;8.308;2023-04-24T05:06:08;2.20;;;1.80;;
15633;SDS011;14654;48.898;8.308;2023-04-24T05:08:33;1.60;;;1.50;;
15633;SDS011;14654;48.898;8.308;2023-04-24T05:10:58;2.77;;;1.87;;
15633;SDS011;14654;48.898;8.308;2023-04-24T05:13:24;1.70;;;1.60;;
15633;SDS011;14654;48.898;8.308;2023-04-24T05:15:49;2.00;;;1.50;;
15633;SDS011;14654;48.898;8.308;2023-04-24T05:18:14;1.70;;;1.37;;
15633;SDS011;14654;48.898;8.308;2023-04-24T05:20:40;1.57;;;1.47;;
15633;SDS011;14654;48.898;8.308;2023-04-24T05:23:07;1.80;;;1.40;;
15633;SDS011;14654;48.898;8.308;2023-04-24T05:25:33;1.50;;;1.40;;
15633;SDS011;14654;48.898;8.308;2023-04-24T05:28:00;1.37;;;1.27;;
15633;SDS011;14654;48.898;8.308;2023-04-24T05:30:25;1.40;;;1.30;;
15633;SDS011;14654;48.898;8.308;2023-04-24T05:32:51;1.47;;;1.20;;
15633;SDS011;14654;48.898;8.308;2023-04-24T05:35:16;1.67;;;1.57;;
15633;SDS011;14654;48.898;8.308;2023-04-24T05:37:41;1.53;;;1.40;;
15633;SDS011;14654;48.898;8.308;2023-04-24T05:40:07;13.33;;;11.00;;
15633;SDS011;14654;48.898;8.308;2023-04-24T05:42:33;47.97;;;32.53;;
15633;SDS011;14654;48.898;8.308;2023-04-24T05:44:59;28.47;;;20.70;;
15633;SDS011;14654;48.898;8.308;2023-04-24T05:47:24;16.77;;;13.17;;
15633;SDS011;14654;48.898;8.308;2023-04-24T05:49:51;14.07;;;10.50;;
15633;SDS011;14654;48.898;8.308;2023-04-24T05:52:16;7.83;;;6.23;;
15633;SDS011;14654;48.898;8.308;2023-04-24T05:54:41;4.47;;;3.67;;
15633;SDS011;14654;48.898;8.308;2023-04-24T05:57:07;3.10;;;2.67;;
15633;SDS011;14654;48.898;8.308;2023-04-24T05:59:36;2.37;;;1.97;;
15633;SDS011;14654;48.898;8.308;2023-04-24T06:02:06;2.47;;;2.27;;
15633;SDS011;14654;48.898;8.308;2023-04-24T06:04:31;2.43;;;2.23;;
15633;SDS011;14654;48.898;8.308;2023-04-24T06:06:57;6.73;;;4.57;;
15633;SDS011;14654;48.898;8.308;2023-04-24T06:09:22;20.03;;;12.57;;
15633;SDS011;14654;48.898;8.308;2023-04-24T06:11:48;19.93;;;13.33;;
15633;SDS011;14654;48.898;8.308;2023-04-24T06:14:14;23.17;;;15.23;;
15633;SDS011;14654;48.898;8.308;2023-04-24T06:16:41;18.13;;;11.03;;
15633;SDS011;14654;48.898;8.308;2023-04-24T06:19:07;20.33;;;13.37;;
15633;SDS011;14654;48.898;8.308;2023-04-24T06:21:32;20.37;;;15.33;;
15633;SDS011;14654;48.898;8.308;2023-04-24T06:23:58;15.63;;;10.87;;
15633;SDS011;14654;48.898;8.308;2023-04-24T06:26:23;10.20;;;7.50;;
15633;SDS011;14654;48.898;8.308;2023-04-24T06:28:50;10.80;;;7.17;;
15633;SDS011;14654;48.898;8.308;2023-04-24T06:31:16;9.07;;;7.10;;
15633;SDS011;14654;48.898;8.308;2023-04-24T06:33:41;10.83;;;8.77;;
15633;SDS011;14654;48.898;8.308;2023-04-24T06:36:07;17.70;;;13.70;;
15633;SDS011;14654;48.898;8.308;2023-04-24T06:38:33;10.77;;;9.47;;
15633;SDS011;14654;48.898;8.308;2023-04-24T06:40:59;8.87;;;7.97;;
15633;SDS011;14654;48.898;8.308;2023-04-24T06:43:24;10.30;;;9.20;;
15633;SDS011;14654;48.898;8.308;2023-04-24T06:45:49;10.17;;;6.67;;
15633;SDS011;14654;48.898;8.308;2023-04-24T06:48:15;5.67;;;5.10;;
15633;SDS011;14654;48.898;8.308;2023-04-24T06:50:40;4.43;;;3.67;;
15633;SDS011;14654;48.898;8.308;2023-04-24T06:53:05;4.17;;;3.63;;
15633;SDS011;14654;48.898;8.308;2023-04-24T06:55:31;3.17;;;2.90;;
15633;SDS011;14654;48.898;8.308;2023-04-24T06:57:56;4.23;;;3.80;;
15633;SDS011;14654;48.898;8.308;2023-04-24T07:00:22;4.20;;;3.80;;
15633;SDS011;14654;48.898;8.308;2023-04-24T07:02:49;4.20;;;3.40;;
15633;SDS011;14654;48.898;8.308;2023-04-24T07:05:14;2.60;;;2.40;;
15633;SDS011;14654;48.898;8.308;2023-04-24T07:07:40;3.13;;;2.60;;
15633;SDS011;14654;48.898;8.308;2023-04-24T07:10:05;3.20;;;2.63;;
15633;SDS011;14654;48.898;8.308;2023-04-24T07:12:31;3.43;;;2.40;;
15633;SDS011;14654;48.898;8.308;2023-04-24T07:14:57;3.00;;;2.50;;
15633;SDS011;14654;48.898;8.308;2023-04-24T07:17:22;3.17;;;2.87;;
15633;SDS011;14654;48.898;8.308;2023-04-24T07:19:47;2.33;;;2.07;;
15633;SDS011;14654;48.898;8.308;2023-04-24T07:22:13;2.67;;;2.47;;
15633;SDS011;14654;48.898;8.308;2023-04-24T07:24:42;3.50;;;3.20;;
15633;SDS011;14654;48.898;8.308;2023-04-24T07:27:10;4.00;;;3.60;;
15633;SDS011;14654;48.898;8.308;2023-04-24T07:29:36;2.17;;;2.07;;
15633;SDS011;14654;48.898;8.308;2023-04-24T07:32:02;3.17;;;2.87;;
15633;SDS011;14654;48.898;8.308;2023-04-24T07:34:27;2.67;;;2.47;;
15633;SDS011;14654;48.898;8.308;2023-04-24T07:36:53;2.93;;;2.73;;
15633;SDS011;14654;48.898;8.308;2023-04-24T07:39:18;2.67;;;2.47;;
15633;SDS011;14654;48.898;8.308;2023-04-24T07:41:43;2.90;;;2.70;;
15633;SDS011;14654;48.898;8.308;2023-04-24T07:44:09;3.07;;;2.70;;
15633;SDS011;14654;48.898;8.308;2023-04-24T07:46:34;2.53;;;2.33;;
15633;SDS011;14654;48.898;8.308;2023-04-24T07:49:00;3.50;;;3.20;;
15633;SDS011;14654;48.898;8.308;2023-04-24T07:51:26;4.30;;;3.80;;
15633;SDS011;14654;48.898;8.308;2023-04-24T07:53:55;2.87;;;2.67;;
15633;SDS011;14654;48.898;8.308;2023-04-24T07:56:21;2.70;;;2.47;;
15633;SDS011;14654;48.898;8.308;2023-04-24T07:58:46;3.47;;;2.30;;
15633;SDS011;14654;48.898;8.308;2023-04-24T08:01:12;2.70;;;2.20;;
15633;SDS011;14654;48.898;8.308;2023-04-24T08:03:37;2.60;;;2.40;;
15633;SDS011;14654;48.898;8.308;2023-04-24T08:06:02;3.17;;;1.87;;
15633;SDS011;14654;48.898;8.308;2023-04-24T08:08:28;1.93;;;1.50;;
15633;SDS011;14654;48.898;8.308;2023-04-24T08:10:53;1.43;;;1.30;;
15633;SDS011;14654;48.898;8.308;2023-04-24T08:13:19;1.43;;;1.30;;
15633;SDS011;14654;48.898;8.308;2023-04-24T08:15:45;1.33;;;1.23;;
15633;SDS011;14654;48.898;8.308;2023-04-24T08:18:10;1.67;;;1.10;;
15633;SDS011;14654;48.898;8.308;2023-04-24T08:20:37;0.97;;;0.90;;
15633;SDS011;14654;48.898;8.308;2023-04-24T08:23:02;1.40;;;1.17;;
15633;SDS011;14654;48.898;8.308;2023-04-24T08:25:28;1.20;;;1.10;;
15633;SDS011;14654;48.898;8.308;2023-04-24T08:27:53;1.73;;;1.30;;
15633;SDS011;14654;48.898;8.308;2023-04-24T08:30:19;1.20;;;1.10;;
15633;SDS011;14654;48.898;8.308;2023-04-24T08:32:45;1.63;;;1.40;;
15633;SDS011;14654;48.898;8.308;2023-04-24T08:35:11;1.70;;;0.90;;
15633;SDS011;14654;48.898;8.308;2023-04-24T08:37:36;0.93;;;0.80;;
15633;SDS011;14654;48.898;8.308;2023-04-24T08:40:03;1.73;;;1.40;;
15633;SDS011;14654;48.898;8.308;2023-04-24T08:42:33;1.53;;;1.00;;
15633;SDS011;14654;48.898;8.308;2023-04-24T08:45:02;1.00;;;1.00;;
15633;SDS011;14654;48.898;8.308;2023-04-24T08:47:27;1.87;;;1.20;;
15633;SDS011;14654;48.898;8.308;2023-04-24T08:49:54;1.73;;;1.20;;
15633;SDS011;14654;48.898;8.308;2023-04-24T08:52:20;1.53;;;1.30;;
15633;SDS011;14654;48.898;8.308;2023-04-24T08:54:46;1.70;;;1.40;;
15633;SDS011;14654;48.898;8.308;2023-04-24T08:57:12;1.63;;;1.30;;
15633;SDS011;14654;48.898;8.308;2023-04-24T08:59:39;1.93;;;1.30;;
15633;SDS011;14654;48.898;8.308;2023-04-24T09:02:05;1.37;;;1.10;;
15633;SDS011;14654;48.898;8.308;2023-04-24T09:04:34;1.57;;;1.30;;
15633;SDS011;14654;48.898;8.308;2023-04-24T09:07:01;1.07;;;1.00;;
15633;SDS011;14654;48.898;8.308;2023-04-24T09:09:28;1.53;;;1.30;;
15633;SDS011;14654;48.898;8.308;2023-04-24T09:11:55;4.00;;;1.30;;
15633;SDS011;14654;48.898;8.308;2023-04-24T09:14:22;1.90;;;1.30;;
15633;SDS011;14654;48.898;8.308;2023-04-24T09:16:48;0.97;;;0.97;;
15633;SDS011;14654;48.898;8.308;2023-04-24T09:19:14;2.67;;;1.40;;
15633;SDS011;14654;48.898;8.308;2023-04-24T09:21:40;3.20;;;1.30;;
15633;SDS011;14654;48.898;8.308;2023-04-24T09:24:07;1.87;;;1.40;;
15633;SDS011;14654;48.898;8.308;2023-04-24T09:26:42;2.23;;;1.23;;
15633;SDS011;14654;48.898;8.308;2023-04-24T09:29:13;1.70;;;1.60;;
15633;SDS011;14654;48.898;8.308;2023-04-24T09:31:42;1.37;;;1.23;;
15633;SDS011;14654;48.898;8.308;2023-04-24T09:34:08;2.20;;;1.40;;
15633;SDS011;14654;48.898;8.308;2023-04-24T09:36:34;1.33;;;1.23;;
15633;SDS011;14654;48.898;8.308;2023-04-24T09:39:03;2.03;;;1.30;;
15633;SDS011;14654;48.898;8.308;2023-04-24T09:44:16;3.10;;;1.60;;
15633;SDS011;14654;48.898;8.308;2023-04-24T09:46:45;1.50;;;1.40;;
15633;SDS011;14654;48.898;8.308;2023-04-24T09:49:15;1.77;;;1.40;;
15633;SDS011;14654;48.898;8.308;2023-04-24T09:51:41;2.03;;;1.50;;
15633;SDS011;14654;48.898;8.308;2023-04-24T09:54:13;2.23;;;1.57;;
15633;SDS011;14654;48.898;8.308;2023-04-24T09:56:46;1.40;;;1.30;;
15633;SDS011;14654;48.898;8.308;2023-04-24T09:59:14;1.47;;;1.30;;
15633;SDS011;14654;48.898;8.308;2023-04-24T10:01:40;1.80;;;1.40;;
15633;SDS011;14654;48.898;8.308;2023-04-24T10:04:24;1.43;;;1.27;;
15633;SDS011;14654;48.898;8.308;2023-04-24T10:06:52;2.07;;;1.20;;
15633;SDS011;14654;48.898;8.308;2023-04-24T10:09:20;2.43;;;1.23;;
15633;SDS011;14654;48.898;8.308;2023-04-24T10:11:47;1.63;;;1.53;;
15633;SDS011;14654;48.898;8.308;2023-04-24T10:14:15;2.67;;;1.40;;
15633;SDS011;14654;48.898;8.308;2023-04-24T10:16:42;1.70;;;1.60;;
15633;SDS011;14654;48.898;8.308;2023-04-24T10:19:09;2.33;;;1.57;;
15633;SDS011;14654;48.898;8.308;2023-04-24T10:21:35;2.50;;;1.50;;
15633;SDS011;14654;48.898;8.308;2023-04-24T10:24:07;1.77;;;1.60;;
15633;SDS011;14654;48.898;8.308;2023-04-24T10:26:33;1.60;;;1.50;;
15633;SDS011;14654;48.898;8.308;2023-04-24T10:28:59;3.13;;;1.43;;
15633;SDS011;14654;48.898;8.308;2023-04-24T10:31:26;1.40;;;1.30;;
15633;SDS011;14654;48.898;8.308;2023-04-24T10:33:54;3.73;;;1.90;;
15633;SDS011;14654;48.898;8.308;2023-04-24T10:36:21;2.20;;;1.63;;
15633;SDS011;14654;48.898;8.308;2023-04-24T10:38:48;1.63;;;1.40;;
15633;SDS011;14654;48.898;8.308;2023-04-24T10:41:15;1.50;;;1.40;;
15633;SDS011;14654;48.898;8.308;2023-04-24T10:43:48;1.87;;;1.67;;
15633;SDS011;14654;48.898;8.308;2023-04-24T10:46:29;2.77;;;1.87;;
15633;SDS011;14654;48.898;8.308;2023-04-24T10:48:55;1.20;;;1.10;;
15633;SDS011;14654;48.898;8.308;2023-04-24T10:51:24;1.33;;;1.20;;
15633;SDS011;14654;48.898;8.308;2023-04-24T10:54:21;1.30;;;1.20;;
15633;SDS011;14654;48.898;8.308;2023-04-24T10:56:47;2.40;;;1.50;;
15633;SDS011;14654;48.898;8.308;2023-04-24T10:59:13;3.03;;;1.60;;
15633;SDS011;14654;48.898;8.308;2023-04-24T11:01:52;1.50;;;1.40;;
15633;SDS011;14654;48.898;8.308;2023-04-24T11:04:28;1.50;;;1.20;;
15633;SDS011;14654;48.898;8.308;2023-04-24T11:06:58;1.67;;;1.20;;
15633;SDS011;14654;48.898;8.308;2023-04-24T11:09:26;1.23;;;1.13;;
15633;SDS011;14654;48.898;8.308;2023-04-24T11:12:02;1.60;;;1.50;;
15633;SDS011;14654;48.898;8.308;2023-04-24T11:14:59;1.17;;;1.10;;
15633;SDS011;14654;48.898;8.308;2023-04-24T11:20:02;1.50;;;1.40;;
15633;SDS011;14654;48.898;8.308;2023-04-24T11:22:32;1.40;;;1.30;;
15633;SDS011;14654;48.898;8.308;2023-04-24T11:25:00;1.40;;;1.30;;
15633;SDS011;14654;48.898;8.308;2023-04-24T11:27:38;3.87;;;2.73;;
15633;SDS011;14654;48.898;8.308;2023-04-24T11:30:05;2.80;;;2.37;;
15633;SDS011;14654;48.898;8.308;2023-04-24T11:37:50;1.67;;;1.53;;
15633;SDS011;14654;48.898;8.308;2023-04-24T11:40:18;2.07;;;1.77;;
15633;SDS011;14654;48.898;8.308;2023-04-24T11:42:51;2.73;;;1.80;;
15633;SDS011;14654;48.898;8.308;2023-04-24T11:45:18;2.50;;;1.80;;
15633;SDS011;14654;48.898;8.308;2023-04-24T11:47:46;1.37;;;1.27;;
15633;SDS011;14654;48.898;8.308;2023-04-24T11:50:12;3.53;;;1.90;;
15633;SDS011;14654;48.898;8.308;2023-04-24T11:52:46;2.10;;;1.80;;
15633;SDS011;14654;48.898;8.308;2023-04-24T12:00:17;3.50;;;2.43;;
15633;SDS011;14654;48.898;8.308;2023-04-24T12:02:44;4.27;;;2.87;;
15633;SDS011;14654;48.898;8.308;2023-04-24T12:05:19;3.83;;;2.67;;
15633;SDS011;14654;48.898;8.308;2023-04-24T12:07:51;2.90;;;2.60;;
15633;SDS011;14654;48.898;8.308;2023-04-24T12:10:21;2.73;;;2.23;;
15633;SDS011;14654;48.898;8.308;2023-04-24T12:12:48;3.67;;;2.43;;
15633;SDS011;14654;48.898;8.308;2023-04-24T12:15:15;3.97;;;2.33;;
15633;SDS011;14654;48.898;8.308;2023-04-24T12:17:41;2.53;;;2.30;;
15633;SDS011;14654;48.898;8.308;2023-04-24T12:20:08;2.87;;;2.43;;
15633;SDS011;14654;48.898;8.308;2023-04-24T12:25:10;4.40;;;2.70;;
15633;SDS011;14654;48.898;8.308;2023-04-24T12:27:36;4.20;;;2.77;;
15633;SDS011;14654;48.898;8.308;2023-04-24T12:30:03;4.30;;;2.73;;
15633;SDS011;14654;48.898;8.308;2023-04-24T12:32:30;4.63;;;2.83;;
15633;SDS011;14654;48.898;8.308;2023-04-24T12:34:56;4.40;;;3.03;;
15633;SDS011;14654;48.898;8.308;2023-04-24T12:37:25;4.43;;;2.33;;
15633;SDS011;14654;48.898;8.308;2023-04-24T12:40:01;3.83;;;2.43;;
15633;SDS011;14654;48.898;8.308;2023-04-24T12:42:50;5.13;;;3.37;;
15633;SDS011;14654;48.898;8.308;2023-04-24T12:45:17;6.73;;;3.90;;
15633;SDS011;14654;48.898;8.308;2023-04-24T12:47:44;4.47;;;3.50;;
15633;SDS011;14654;48.898;8.308;2023-04-24T12:50:11;5.33;;;3.30;;
15633;SDS011;14654;48.898;8.308;2023-04-24T12:52:37;4.00;;;3.20;;
15633;SDS011;14654;48.898;8.308;2023-04-24T12:55:04;4.33;;;2.33;;
15633;SDS011;14654;48.898;8.308;2023-04-24T12:57:33;2.80;;;2.60;;
15633;SDS011;14654;48.898;8.308;2023-04-24T12:59:59;4.50;;;2.77;;
15633;SDS011;14654;48.898;8.308;2023-04-24T13:02:26;2.50;;;2.30;;
15633;SDS011;14654;48.898;8.308;2023-04-24T13:04:53;2.67;;;2.30;;
15633;SDS011;14654;48.898;8.308;2023-04-24T13:07:19;2.50;;;2.30;;
15633;SDS011;14654;48.898;8.308;2023-04-24T13:09:45;2.87;;;2.17;;
15633;SDS011;14654;48.898;8.308;2023-04-24T13:12:10;2.53;;;2.33;;
15633;SDS011;14654;48.898;8.308;2023-04-24T13:14:36;2.37;;;2.17;;
15633;SDS011;14654;48.898;8.308;2023-04-24T13:17:02;2.77;;;2.07;;
15633;SDS011;14654;48.898;8.308;2023-04-24T13:19:28;1.97;;;1.77;;
15633;SDS011;14654;48.898;8.308;2023-04-24T13:21:55;2.20;;;1.90;;
15633;SDS011;14654;48.898;8.308;2023-04-24T13:24:22;2.67;;;2.20;;
15633;SDS011;14654;48.898;8.308;2023-04-24T13:26:51;2.40;;;2.20;;
15633;SDS011;14654;48.898;8.308;2023-04-24T13:29:19;3.60;;;2.87;;
15633;SDS011;14654;48.898;8.308;2023-04-24T13:31:45;2.57;;;2.37;;
15633;SDS011;14654;48.898;8.308;2023-04-24T13:34:11;2.73;;;2.40;;
15633;SDS011;14654;48.898;8.308;2023-04-24T13:36:38;4.90;;;3.80;;
15633;SDS011;14654;48.898;8.308;2023-04-24T13:39:03;3.47;;;3.10;;
15633;SDS011;14654;48.898;8.308;2023-04-24T13:41:30;2.40;;;2.20;;
15633;SDS011;14654;48.898;8.308;2023-04-24T13:43:57;3.13;;;2.07;;
15633;SDS011;14654;48.898;8.308;2023-04-24T13:46:22;2.50;;;2.30;;
15633;SDS011;14654;48.898;8.308;2023-04-24T13:48:48;2.70;;;2.10;;
15633;SDS011;14654;48.898;8.308;2023-04-24T13:51:13;2.40;;;1.90;;
15633;SDS011;14654;48.898;8.308;2023-04-24T13:53:38;2.03;;;1.90;;
15633;SDS011;14654;48.898;8.308;2023-04-24T13:56:04;2.23;;;1.80;;
15633;SDS011;14654;48.898;8.308;2023-04-24T13:58:30;1.50;;;1.13;;
15633;SDS011;14654;48.898;8.308;2023-04-24T14:00:56;2.73;;;1.70;;
15633;SDS011;14654;48.898;8.308;2023-04-24T14:03:21;2.70;;;1.97;;
15633;SDS011;14654;48.898;8.308;2023-04-24T14:05:46;2.10;;;1.70;;
15633;SDS011;14654;48.898;8.308;2023-04-24T14:08:12;2.37;;;1.70;;
15633;SDS011;14654;48.898;8.308;2023-04-24T14:10:37;1.57;;;1.47;;
15633;SDS011;14654;48.898;8.308;2023-04-24T14:13:02;2.17;;;1.70;;
15633;SDS011;14654;48.898;8.308;2023-04-24T14:15:28;3.40;;;1.77;;
15633;SDS011;14654;48.898;8.308;2023-04-24T14:17:53;2.07;;;1.60;;
15633;SDS011;14654;48.898;8.308;2023-04-24T14:20:18;3.00;;;2.10;;
15633;SDS011;14654;48.898;8.308;2023-04-24T14:22:44;1.30;;;1.20;;
15633;SDS011;14654;48.898;8.308;2023-04-24T14:25:09;1.33;;;1.23;;
15633;SDS011;14654;48.898;8.308;2023-04-24T14:27:35;1.30;;;1.20;;
15633;SDS011;14654;48.898;8.308;2023-04-24T14:30:01;1.37;;;1.23;;
15633;SDS011;14654;48.898;8.308;2023-04-24T14:32:26;1.67;;;1.57;;
15633;SDS011;14654;48.898;8.308;2023-04-24T14:34:51;1.37;;;1.23;;
15633;SDS011;14654;48.898;8.308;2023-04-24T14:37:17;2.10;;;1.77;;
15633;SDS011;14654;48.898;8.308;2023-04-24T14:39:43;1.70;;;1.60;;
15633;SDS011;14654;48.898;8.308;2023-04-24T14:42:08;2.23;;;2.07;;
15633;SDS011;14654;48.898;8.308;2023-04-24T14:44:33;2.00;;;1.90;;
15633;SDS011;14654;48.898;8.308;2023-04-24T14:46:59;2.83;;;1.97;;
15633;SDS011;14654;48.898;8.308;2023-04-24T14:49:25;2.30;;;2.10;;
15633;SDS011;14654;48.898;8.308;2023-04-24T14:51:50;2.20;;;2.00;;
15633;SDS011;14654;48.898;8.308;2023-04-24T14:54:15;2.53;;;2.33;;
15633;SDS011;14654;48.898;8.308;2023-04-24T14:56:41;2.27;;;2.00;;
15633;SDS011;14654;48.898;8.308;2023-04-24T14:59:08;2.10;;;1.90;;